createdAt,value
2022-09-18T00:00:02.555Z,0
2022-09-18T00:05:03.189Z,0
2022-09-18T00:10:02.832Z,0
2022-09-18T00:15:02.736Z,0
2022-09-18T00:20:02.372Z,0
2022-09-18T00:25:02.989Z,0
2022-09-18T00:30:05.816Z,0
2022-09-18T00:35:03.034Z,0
2022-09-18T00:40:02.410Z,0
2022-09-18T00:45:03.036Z,0
2022-09-18T00:55:03.367Z,0
2022-09-18T01:00:02.863Z,0
2022-09-18T01:05:02.471Z,0
2022-09-18T01:10:03.177Z,0
2022-09-18T01:15:02.610Z,0
2022-09-18T01:20:02.271Z,0
2022-09-18T01:25:02.903Z,0
2022-09-18T01:30:02.595Z,0
2022-09-18T01:35:09.728Z,0
2022-09-18T01:40:03.089Z,0
2022-09-18T01:45:03.104Z,0
2022-09-18T01:50:02.684Z,0
2022-09-18T01:55:04.645Z,0
2022-09-18T02:00:02.802Z,0
2022-09-18T02:05:02.493Z,0
2022-09-18T02:10:03.153Z,0
2022-09-18T02:15:02.786Z,0
2022-09-18T02:20:02.442Z,0
2022-09-18T02:25:03.053Z,0
2022-09-18T02:30:02.711Z,0
2022-09-18T02:35:02.478Z,0
2022-09-18T02:40:03.616Z,0
2022-09-18T02:45:02.935Z,0
2022-09-18T02:50:02.587Z,0
2022-09-18T02:55:04.575Z,0
2022-09-18T03:00:02.771Z,0
2022-09-18T03:05:02.293Z,0
2022-09-18T03:10:02.943Z,0
2022-09-18T03:15:02.783Z,0
2022-09-18T03:20:02.435Z,0
2022-09-18T03:25:03.073Z,0
2022-09-18T03:30:02.645Z,0
2022-09-18T03:35:02.228Z,0
2022-09-18T03:40:02.894Z,0
2022-09-18T03:45:03.027Z,0
2022-09-18T03:50:02.714Z,0
2022-09-18T03:55:03.967Z,0
2022-09-18T04:00:03.086Z,0
2022-09-18T04:05:02.710Z,0
2022-09-18T04:10:02.515Z,0.11
2022-09-18T04:15:03.145Z,0.45
2022-09-18T04:20:02.917Z,1.36
2022-09-18T04:25:02.467Z,3.51
2022-09-18T04:30:02.353Z,9.28
2022-09-18T04:35:03.019Z,10
2022-09-18T04:40:02.890Z,25
2022-09-18T04:45:02.556Z,50
2022-09-18T04:50:02.523Z,73.33
2022-09-18T04:55:03.628Z,125
2022-09-18T05:00:03.510Z,258.33
2022-09-18T05:05:02.834Z,346.67
2022-09-18T05:10:02.498Z,440
2022-09-18T05:15:03.164Z,540
2022-09-18T05:20:02.815Z,703.33
2022-09-18T05:25:02.479Z,1008.33
2022-09-18T05:30:03.187Z,926.67
2022-09-18T05:35:02.767Z,1156.67
2022-09-18T05:40:02.607Z,1110
2022-09-18T05:45:02.313Z,1205
2022-09-18T05:50:02.892Z,1955
2022-09-18T05:55:03.991Z,2493.33
2022-09-18T06:00:02.293Z,3626.67
2022-09-18T06:05:02.937Z,1565
2022-09-18T06:10:02.686Z,2798.33
2022-09-18T06:15:02.353Z,2760
2022-09-18T06:20:02.233Z,2465
2022-09-18T06:25:02.865Z,3178.33
2022-09-18T06:30:02.516Z,3281.67
2022-09-18T06:35:03.117Z,2498.33
2022-09-18T06:40:02.799Z,2436.67
2022-09-18T06:45:02.521Z,1813.33
2022-09-18T06:50:02.419Z,5483.33
2022-09-18T06:55:04.184Z,5831.67
2022-09-18T07:00:04.555Z,5023.33
2022-09-18T07:05:02.348Z,3086.67
2022-09-18T07:10:07.013Z,5463.33
2022-09-18T07:15:02.966Z,6505
2022-09-18T07:20:02.627Z,3513.33
2022-09-18T07:25:02.424Z,6065
2022-09-18T07:30:03.116Z,12533.33
2022-09-18T07:35:02.980Z,10091.67
2022-09-18T07:40:03.174Z,6258.33
2022-09-18T07:45:03.184Z,6860
2022-09-18T07:50:02.769Z,11793.33
2022-09-18T07:55:03.891Z,13028.33
2022-09-18T08:00:02.608Z,27393.33
2022-09-18T08:05:02.256Z,27833.33
2022-09-18T08:10:02.884Z,7538.33
2022-09-18T08:15:02.553Z,29513.33
2022-09-18T08:20:02.380Z,8603.33
2022-09-18T08:25:03.085Z,5606.67
2022-09-18T08:30:02.746Z,6576.67
2022-09-18T08:35:02.499Z,5586.67
2022-09-18T08:40:02.347Z,33313.33
2022-09-18T08:45:02.995Z,28136.67
2022-09-18T08:50:02.630Z,9085
2022-09-18T08:55:03.910Z,30930
2022-09-18T09:00:02.934Z,7083.33
2022-09-18T09:05:02.563Z,4270
2022-09-18T09:10:02.218Z,4865
2022-09-18T09:15:02.882Z,4955
2022-09-18T09:20:02.716Z,9125
2022-09-18T09:25:02.327Z,38713.33
2022-09-18T09:30:02.996Z,38280
2022-09-18T09:35:02.645Z,9481.67
2022-09-18T09:40:02.333Z,9970
2022-09-18T09:45:03.070Z,4438.33
2022-09-18T09:50:02.970Z,6698.33
2022-09-18T09:55:03.856Z,8255
2022-09-18T10:00:03.508Z,33646.67
2022-09-18T10:05:02.867Z,44756.67
2022-09-18T10:10:02.370Z,37533.33
2022-09-18T10:15:03.035Z,42356.67
2022-09-18T10:20:02.694Z,47753.33
2022-09-18T10:25:02.490Z,40863.33
2022-09-18T10:30:03.145Z,40546.67
2022-09-18T10:35:02.721Z,40076.67
2022-09-18T10:40:02.436Z,48783.33
2022-09-18T10:45:03.148Z,10741.67
2022-09-18T10:50:02.748Z,8258.33
2022-09-18T10:55:04.017Z,48590
2022-09-18T11:00:03.108Z,48600
2022-09-18T11:05:02.695Z,43763.33
2022-09-18T11:10:02.342Z,42090
2022-09-18T11:15:02.314Z,42366.67
2022-09-18T11:20:02.955Z,42590
2022-09-18T11:25:02.588Z,39356.67
2022-09-18T11:30:02.314Z,6186.67
2022-09-18T11:35:02.918Z,7956.67
2022-09-18T11:40:02.834Z,11036.67
2022-09-18T11:45:02.426Z,2990
2022-09-18T11:50:03.191Z,8073.33
2022-09-18T11:55:03.927Z,10705
2022-09-18T12:00:02.617Z,10575
2022-09-18T12:05:02.311Z,10150
2022-09-18T12:10:02.027Z,6835
2022-09-18T12:15:01.323Z,6648.33
2022-09-18T12:20:00.988Z,10638.33
2022-09-18T12:25:01.900Z,36013.33
2022-09-18T12:30:01.292Z,39080
2022-09-18T12:35:00.970Z,38506.67
2022-09-18T12:40:02.449Z,33030
2022-09-18T12:45:02.137Z,34806.67
2022-09-18T12:50:01.746Z,34276.67
2022-09-18T12:55:03.809Z,29713.33
2022-09-18T13:00:02.134Z,11265
2022-09-18T13:05:01.840Z,32596.67
2022-09-18T13:10:01.606Z,3718.33
2022-09-18T13:15:02.451Z,4533.33
2022-09-18T13:20:02.883Z,3585
2022-09-18T13:25:02.503Z,2788.33
2022-09-18T13:30:03.176Z,4300
2022-09-18T13:35:02.783Z,5926.67
2022-09-18T13:40:10.943Z,4240
2022-09-18T13:45:02.222Z,3330
2022-09-18T13:50:02.848Z,12738.33
2022-09-18T13:55:04.007Z,33066.67
2022-09-18T14:00:03.162Z,6695
2022-09-18T14:05:02.796Z,10930
2022-09-18T14:10:04.443Z,12968.33
2022-09-18T14:15:02.264Z,2806.67
2022-09-18T14:20:02.991Z,3675
2022-09-18T14:25:02.604Z,2986.67
2022-09-18T14:30:02.314Z,4303.33
2022-09-18T14:35:02.947Z,1521.67
2022-09-18T14:40:02.679Z,1056.67
2022-09-18T14:45:02.333Z,1403.33
2022-09-18T14:50:03.334Z,2183.33
2022-09-18T14:55:04.032Z,3010
2022-09-18T15:00:02.418Z,2786.67
2022-09-18T15:05:03.071Z,3598.33
2022-09-18T15:10:02.762Z,4970
2022-09-18T15:15:02.423Z,4655
2022-09-18T15:20:03.134Z,3968.33
2022-09-18T15:25:02.792Z,2813.33
2022-09-18T15:30:02.487Z,3771.67
2022-09-18T15:35:02.253Z,3691.67
2022-09-18T15:40:03.207Z,3353.33
2022-09-18T15:45:02.939Z,2943.33
2022-09-18T15:50:02.530Z,3243.33
2022-09-18T15:55:04.435Z,2463.33
2022-09-18T16:00:02.804Z,2076.67
2022-09-18T16:05:02.445Z,1215
2022-09-18T16:10:03.080Z,1071.67
2022-09-18T16:15:02.724Z,2215
2022-09-18T16:20:02.382Z,4420
2022-09-18T16:25:03.008Z,3200
2022-09-18T16:30:02.685Z,2138.33
2022-09-18T16:35:02.261Z,865
2022-09-18T16:40:03.149Z,720
2022-09-18T16:45:02.891Z,765
2022-09-18T16:50:02.334Z,941.67
2022-09-18T16:55:04.421Z,710
2022-09-18T17:00:03.045Z,493.33
2022-09-18T17:05:02.407Z,348.33
2022-09-18T17:10:03.305Z,156.67
2022-09-18T17:15:02.993Z,103.33
2022-09-18T17:20:02.655Z,58.33
2022-09-18T17:25:02.275Z,30
2022-09-18T17:30:03.217Z,15
2022-09-18T17:35:02.961Z,6.67
2022-09-18T17:40:02.597Z,6.9
2022-09-18T17:45:02.206Z,3.28
2022-09-18T17:50:02.796Z,1.47
2022-09-18T17:55:03.753Z,0.57
2022-09-18T18:00:03.056Z,0.11
2022-09-18T18:05:02.685Z,0
2022-09-18T18:10:02.316Z,0
2022-09-18T18:15:03.005Z,0
2022-09-18T18:20:02.699Z,0
2022-09-18T18:25:02.310Z,0
2022-09-18T18:30:02.999Z,0
2022-09-18T18:35:02.600Z,0
2022-09-18T18:40:02.271Z,0
2022-09-18T18:45:02.772Z,0
2022-09-18T18:50:02.359Z,0
2022-09-18T18:55:04.090Z,0
2022-09-18T19:00:02.751Z,0
2022-09-18T19:05:02.403Z,0
2022-09-18T19:10:03.055Z,0
2022-09-18T19:15:02.733Z,0
2022-09-18T19:20:02.390Z,0
2022-09-18T19:25:02.996Z,0
2022-09-18T19:30:02.943Z,0
2022-09-18T19:35:02.295Z,0
2022-09-18T19:40:02.922Z,0
2022-09-18T19:45:02.701Z,0
2022-09-18T19:50:02.320Z,0
2022-09-18T19:55:04.350Z,0
2022-09-18T20:00:02.726Z,0
2022-09-18T20:05:02.711Z,0
2022-09-18T20:10:02.607Z,0
2022-09-18T20:15:02.256Z,0
2022-09-18T20:20:02.908Z,0
2022-09-18T20:25:02.528Z,0
2022-09-18T20:30:03.184Z,0
2022-09-18T20:35:02.875Z,0
2022-09-18T20:40:02.566Z,0
2022-09-18T20:45:03.159Z,0
2022-09-18T20:50:02.832Z,0
2022-09-18T20:55:03.950Z,0
2022-09-18T21:00:02.323Z,0
2022-09-18T21:05:02.946Z,0
2022-09-18T21:10:02.551Z,0
2022-09-18T21:15:03.225Z,0
2022-09-18T21:20:03.193Z,0
2022-09-18T21:25:02.812Z,0
2022-09-18T21:30:02.517Z,0
2022-09-18T21:35:03.142Z,0
2022-09-18T21:40:02.898Z,0
2022-09-18T21:45:02.491Z,0
2022-09-18T21:50:03.381Z,0
2022-09-18T21:55:04.106Z,0
2022-09-18T22:00:02.785Z,0
2022-09-18T22:05:02.218Z,0
2022-09-18T22:10:02.845Z,0
2022-09-18T22:15:03.488Z,0
2022-09-18T22:20:03.002Z,0
2022-09-18T22:25:02.998Z,0
2022-09-18T22:30:02.791Z,0
2022-09-18T22:35:03.407Z,0
2022-09-18T22:40:03.429Z,0
2022-09-18T22:45:02.825Z,0
2022-09-18T22:50:03.416Z,0
2022-09-18T22:55:04.721Z,0
2022-09-18T23:00:03.004Z,0
2022-09-18T23:05:02.970Z,0
2022-09-18T23:10:03.548Z,0
2022-09-18T23:15:03.224Z,0
2022-09-18T23:20:03.176Z,0
2022-09-18T23:25:02.809Z,0
2022-09-18T23:30:03.470Z,0
2022-09-18T23:35:03.203Z,0
2022-09-18T23:40:03.037Z,0
2022-09-18T23:45:03.581Z,0
2022-09-18T23:50:03.228Z,0
2022-09-18T23:55:03.769Z,0
